createdAt,value
2023-01-13T00:01:58.282Z,99074.31
2023-01-13T00:04:25.202Z,99068.28
2023-01-13T00:06:52.428Z,99068.28
2023-01-13T00:09:19.387Z,99068.97
2023-01-13T00:11:46.424Z,99065.44
2023-01-13T00:14:13.452Z,99070.06
2023-01-13T00:16:40.389Z,99066.19
2023-01-13T00:19:07.417Z,99056.47
2023-01-13T00:21:34.715Z,99053.69
2023-01-13T00:24:01.800Z,99055.38
2023-01-13T00:26:28.719Z,99049.34
2023-01-13T00:28:55.764Z,99047.56
2023-01-13T00:31:22.903Z,99048.56
2023-01-13T00:33:49.907Z,99040.63
2023-01-13T00:36:16.840Z,99040.63
2023-01-13T00:38:43.769Z,99035.44
2023-01-13T00:41:10.766Z,99041.47
2023-01-13T00:43:37.942Z,99044.25
2023-01-13T00:46:04.950Z,99055.06
2023-01-13T00:48:31.930Z,99047.66
2023-01-13T00:50:59.160Z,99046.50
2023-01-13T00:53:26.375Z,99048.88
2023-01-13T00:55:53.492Z,99041.00
2023-01-13T00:58:20.612Z,99041.84
2023-01-13T01:00:47.638Z,99038.53
2023-01-13T01:03:14.586Z,99047.16
2023-01-13T01:05:41.485Z,99046.75
2023-01-13T01:08:08.550Z,99030.41
2023-01-13T01:10:35.481Z,99030.13
2023-01-13T01:13:02.383Z,99028.25
2023-01-13T01:15:29.301Z,99026.56
2023-01-13T01:17:56.219Z,99021.59
2023-01-13T01:20:23.385Z,99021.91
2023-01-13T01:22:50.505Z,99007.00
2023-01-13T01:25:17.794Z,99003.69
2023-01-13T01:27:44.865Z,99010.19
2023-01-13T01:30:11.774Z,99010.72
2023-01-13T01:32:38.925Z,99008.41
2023-01-13T01:35:08.612Z,99010.66
2023-01-13T01:37:35.538Z,99002.38
2023-01-13T01:40:02.980Z,99000.91
2023-01-13T01:42:30.158Z,99007.56
2023-01-13T01:44:57.384Z,99002.00
2023-01-13T01:47:24.337Z,99001.91
2023-01-13T01:49:51.396Z,99003.00
2023-01-13T01:52:18.299Z,98991.94
2023-01-13T01:54:45.291Z,98997.28
2023-01-13T01:57:12.442Z,98988.41
2023-01-13T01:59:39.326Z,98991.09
2023-01-13T02:02:07.483Z,98987.53
2023-01-13T02:04:34.511Z,98985.16
2023-01-13T02:07:01.672Z,98986.84
2023-01-13T02:09:28.649Z,98978.91
2023-01-13T02:11:56.076Z,98988.09
2023-01-13T02:14:24.220Z,98975.44
2023-01-13T02:16:51.218Z,98973.19
2023-01-13T02:19:18.557Z,98971.56
2023-01-13T02:21:45.757Z,98961.59
2023-01-13T02:24:13.032Z,98977.34
2023-01-13T02:26:39.969Z,98970.72
2023-01-13T02:29:07.146Z,98958.84
2023-01-13T02:31:34.252Z,98965.69
2023-01-13T02:34:01.481Z,98961.53
2023-01-13T02:36:28.518Z,98948.34
2023-01-13T02:38:55.962Z,98949.88
2023-01-13T02:41:22.888Z,98949.72
2023-01-13T02:43:49.832Z,98954.25
2023-01-13T02:46:17.287Z,98950.84
2023-01-13T02:48:45.262Z,98948.22
2023-01-13T02:51:12.337Z,98951.97
2023-01-13T02:53:39.510Z,98946.94
2023-01-13T02:56:06.518Z,98948.13
2023-01-13T02:58:33.495Z,98948.69
2023-01-13T03:01:02.689Z,98934.28
2023-01-13T03:03:29.603Z,98936.13
2023-01-13T03:05:56.580Z,98934.28
2023-01-13T03:08:23.496Z,98937.53
2023-01-13T03:10:50.589Z,98934.13
2023-01-13T03:13:17.770Z,98939.53
2023-01-13T03:15:44.510Z,98942.94
2023-01-13T03:18:11.687Z,98936.81
2023-01-13T03:20:38.760Z,98932.44
2023-01-13T03:23:05.592Z,98941.06
2023-01-13T03:25:32.591Z,98932.28
2023-01-13T03:27:59.754Z,98929.66
2023-01-13T03:30:27.254Z,98927.34
2023-01-13T03:32:54.355Z,98928.88
2023-01-13T03:35:21.182Z,98936.59
2023-01-13T03:37:48.500Z,98932.44
2023-01-13T03:40:15.612Z,98927.03
2023-01-13T03:42:42.521Z,98936.69
2023-01-13T03:45:09.362Z,98925.19
2023-01-13T03:47:36.173Z,98929.44
2023-01-13T03:50:03.076Z,98925.81
2023-01-13T03:52:31.097Z,98926.72
2023-01-13T03:54:58.213Z,98929.34
2023-01-13T03:57:25.147Z,98930.91
2023-01-13T03:59:52.130Z,98925.56
2023-01-13T04:02:19.048Z,98925.19
2023-01-13T04:04:45.975Z,98919.63
2023-01-13T04:07:12.863Z,98920.31
2023-01-13T04:09:39.864Z,98916.06
2023-01-13T04:12:06.962Z,98921.56
2023-01-13T04:14:33.793Z,98920.06
2023-01-13T04:17:01.183Z,98917.31
2023-01-13T04:19:27.977Z,98922.31
2023-01-13T04:21:54.895Z,98924.72
2023-01-13T04:24:21.955Z,98921.59
2023-01-13T04:26:48.864Z,98920.00
2023-01-13T04:29:15.977Z,98923.53
2023-01-13T04:31:43.158Z,98913.44
2023-01-13T04:34:09.999Z,98917.53
2023-01-13T04:36:36.827Z,98918.06
2023-01-13T04:39:03.904Z,98919.78
2023-01-13T04:41:30.755Z,98919.94
2023-01-13T04:43:57.646Z,98914.81
2023-01-13T04:46:24.531Z,98915.44
2023-01-13T04:48:51.387Z,98913.13
2023-01-13T04:51:18.395Z,98908.44
2023-01-13T04:53:45.266Z,98911.59
2023-01-13T04:56:12.111Z,98908.97
2023-01-13T04:58:38.997Z,98911.75
2023-01-13T05:01:06.193Z,98905.63
2023-01-13T05:03:33.637Z,98910.03
2023-01-13T05:06:00.414Z,98904.00
2023-01-13T05:08:27.311Z,98909.19
2023-01-13T05:10:54.162Z,98903.88
2023-01-13T05:13:21.057Z,98906.28
2023-01-13T05:15:47.896Z,98908.56
2023-01-13T05:18:14.768Z,98899.09
2023-01-13T05:20:42.036Z,98900.88
2023-01-13T05:23:08.844Z,98901.66
2023-01-13T05:25:35.667Z,98898.00
2023-01-13T05:28:02.615Z,98899.03
2023-01-13T05:30:29.459Z,98898.69
2023-01-13T05:32:56.364Z,98897.00
2023-01-13T05:35:23.364Z,98896.00
2023-01-13T05:37:50.189Z,98903.09
2023-01-13T05:40:17.016Z,98900.31
2023-01-13T05:42:43.875Z,98893.75
2023-01-13T05:45:11.189Z,98902.50
2023-01-13T05:47:38.135Z,98913.50
2023-01-13T05:50:05.111Z,98907.97
2023-01-13T05:52:32.028Z,98901.97
2023-01-13T05:54:58.952Z,98914.16
2023-01-13T05:57:25.824Z,98905.34
2023-01-13T05:59:52.871Z,98905.34
2023-01-13T06:02:19.771Z,98905.66
2023-01-13T06:04:47.060Z,98901.47
2023-01-13T06:07:13.997Z,98905.34
2023-01-13T06:09:40.995Z,98900.56
2023-01-13T06:12:07.807Z,98896.78
2023-01-13T06:14:37.167Z,98906.50
2023-01-13T06:17:03.994Z,98904.09
2023-01-13T06:19:30.937Z,98914.59
2023-01-13T06:21:57.832Z,98928.56
2023-01-13T06:24:24.660Z,98927.63
2023-01-13T06:26:51.513Z,98920.00
2023-01-13T06:29:18.341Z,98924.16
2023-01-13T06:31:45.297Z,98919.84
2023-01-13T06:34:12.145Z,98914.75
2023-01-13T06:36:39.498Z,98916.88
2023-01-13T06:39:06.373Z,98926.22
2023-01-13T06:41:33.191Z,98925.38
2023-01-13T06:44:00.065Z,98916.31
2023-01-13T06:46:26.886Z,98919.69
2023-01-13T06:48:53.994Z,98914.41
2023-01-13T06:51:20.787Z,98916.75
2023-01-13T06:53:47.613Z,98925.53
2023-01-13T06:56:14.583Z,98920.13
2023-01-13T06:58:41.735Z,98919.50
2023-01-13T07:01:08.883Z,98922.84
2023-01-13T07:03:35.865Z,98932.88
2023-01-13T07:06:02.924Z,98930.94
2023-01-13T07:08:30.165Z,98927.72
2023-01-13T07:10:57.008Z,98922.31
2023-01-13T07:13:24.014Z,98921.09
2023-01-13T07:15:50.863Z,98919.25
2023-01-13T07:18:17.709Z,98913.75
2023-01-13T07:20:44.821Z,98903.31
2023-01-13T07:23:11.708Z,98907.06
2023-01-13T07:25:38.605Z,98905.34
2023-01-13T07:28:05.426Z,98912.31
2023-01-13T07:30:32.404Z,98913.16
2023-01-13T07:32:59.453Z,98914.00
2023-01-13T07:35:26.316Z,98915.44
2023-01-13T07:37:53.944Z,98922.09
2023-01-13T07:40:20.788Z,98916.44
2023-01-13T07:42:47.695Z,98908.91
2023-01-13T07:45:14.525Z,98904.16
2023-01-13T07:47:41.543Z,98909.41
2023-01-13T07:50:08.477Z,98910.75
2023-01-13T07:52:35.339Z,98913.44
2023-01-13T07:55:02.685Z,98922.94
2023-01-13T07:57:29.611Z,98911.88
2023-01-13T07:59:56.429Z,98918.25
2023-01-13T08:02:23.634Z,98929.69
2023-01-13T08:04:50.571Z,98930.19
2023-01-13T08:07:17.462Z,98933.44
2023-01-13T08:09:44.211Z,98932.03
2023-01-13T08:12:11.350Z,98930.88
2023-01-13T08:14:38.162Z,98927.94
2023-01-13T08:17:05.056Z,98934.28
2023-01-13T08:19:32.236Z,98939.53
2023-01-13T08:21:59.103Z,98939.06
2023-01-13T08:24:25.893Z,98948.88
2023-01-13T08:26:52.865Z,98947.88
2023-01-13T08:29:20.082Z,98940.41
2023-01-13T08:31:47.089Z,98946.00
2023-01-13T08:34:13.951Z,98951.06
2023-01-13T08:36:41.958Z,98965.06
2023-01-13T08:39:09.802Z,98962.13
2023-01-13T08:41:36.581Z,98949.78
2023-01-13T08:44:03.605Z,98942.66
2023-01-13T08:46:30.467Z,98939.88
2023-01-13T08:48:57.561Z,98938.50
2023-01-13T08:51:24.601Z,98945.72
2023-01-13T08:53:51.943Z,98949.53
2023-01-13T08:56:18.701Z,98955.66
2023-01-13T08:58:45.535Z,98945.81
2023-01-13T09:01:12.469Z,98946.38
2023-01-13T09:03:39.338Z,98948.28
2023-01-13T09:06:06.254Z,98943.66
2023-01-13T09:08:33.139Z,98943.72
2023-01-13T09:10:59.993Z,98937.38
2023-01-13T09:13:26.840Z,98942.81
2023-01-13T09:15:53.716Z,98944.84
2023-01-13T09:18:20.556Z,98943.44
2023-01-13T09:20:47.432Z,98937.56
2023-01-13T09:23:14.196Z,98938.56
2023-01-13T09:25:41.286Z,98943.28
2023-01-13T09:28:08.114Z,98942.91
2023-01-13T09:30:35.854Z,98929.63
2023-01-13T09:33:02.734Z,98931.38
2023-01-13T09:35:29.546Z,98936.19
2023-01-13T09:37:56.377Z,98928.00
2023-01-13T09:40:23.246Z,98929.97
2023-01-13T09:42:50.058Z,98926.13
2023-01-13T09:45:17.103Z,98919.03
2023-01-13T09:47:44.222Z,98922.59
2023-01-13T09:50:11.025Z,98917.66
2023-01-13T09:52:38.150Z,98910.00
2023-01-13T09:55:04.982Z,98899.66
2023-01-13T09:57:32.090Z,98895.84
2023-01-13T09:59:58.988Z,98902.78
2023-01-13T10:02:25.831Z,98896.56
2023-01-13T10:04:52.877Z,98900.50
2023-01-13T10:07:24.997Z,98897.59
2023-01-13T10:09:53.988Z,98897.28
2023-01-13T10:12:20.840Z,98890.63
2023-01-13T10:14:48.189Z,98891.13
2023-01-13T10:17:16.044Z,98894.19
2023-01-13T10:19:42.910Z,98888.81
2023-01-13T10:22:09.875Z,98897.91
2023-01-13T10:24:36.950Z,98893.41
2023-01-13T10:27:03.818Z,98893.75
2023-01-13T10:29:30.629Z,98879.97
2023-01-13T10:32:07.604Z,98888.94
2023-01-13T10:34:34.570Z,98883.84
2023-01-13T10:37:01.486Z,98877.03
2023-01-13T10:39:28.308Z,98866.22
2023-01-13T10:41:55.160Z,98866.88
2023-01-13T10:44:22.058Z,98862.66
2023-01-13T10:46:49.381Z,98858.94
2023-01-13T10:49:16.170Z,98858.91
2023-01-13T10:51:43.789Z,98847.81
2023-01-13T10:54:10.646Z,98832.25
2023-01-13T10:56:37.399Z,98831.41
2023-01-13T10:59:04.244Z,98834.75
2023-01-13T11:01:31.264Z,98834.09
2023-01-13T11:03:58.301Z,98832.25
2023-01-13T11:06:25.130Z,98823.56
2023-01-13T11:08:52.032Z,98818.66
2023-01-13T11:11:18.958Z,98821.03
2023-01-13T11:13:45.830Z,98819.56
2023-01-13T11:16:12.752Z,98817.56
2023-01-13T11:18:39.696Z,98823.91
2023-01-13T11:21:06.591Z,98816.88
2023-01-13T11:23:33.375Z,98825.59
2023-01-13T11:26:00.214Z,98815.63
2023-01-13T11:28:27.092Z,98817.53
2023-01-13T11:30:54.068Z,98812.47
2023-01-13T11:33:20.871Z,98811.69
2023-01-13T11:35:47.801Z,98810.28
2023-01-13T11:38:14.879Z,98811.69
2023-01-13T11:40:41.650Z,98806.44
2023-01-13T11:43:08.704Z,98803.59
2023-01-13T11:45:35.827Z,98803.56
2023-01-13T11:48:02.792Z,98799.47
2023-01-13T11:50:29.570Z,98792.63
2023-01-13T11:52:56.630Z,98798.38
2023-01-13T11:55:23.457Z,98800.34
2023-01-13T11:57:50.690Z,98788.81
2023-01-13T12:00:17.578Z,98792.94
2023-01-13T12:02:44.843Z,98796.97
2023-01-13T12:05:11.927Z,98798.31
2023-01-13T12:07:38.917Z,98795.53
2023-01-13T12:10:08.957Z,98797.31
2023-01-13T12:12:38.459Z,98797.03
2023-01-13T12:15:05.397Z,98790.31
2023-01-13T12:17:32.205Z,98791.47
2023-01-13T12:19:59.031Z,98792.63
2023-01-13T12:22:26.110Z,98787.03
2023-01-13T12:24:52.969Z,98786.75
2023-01-13T12:27:19.880Z,98783.16
2023-01-13T12:29:47.745Z,98782.09
2023-01-13T12:32:14.613Z,98795.34
2023-01-13T12:34:41.809Z,98781.06
2023-01-13T12:37:08.730Z,98790.47
2023-01-13T12:39:35.559Z,98779.00
2023-01-13T12:42:02.828Z,98777.28
2023-01-13T12:44:30.216Z,98781.34
2023-01-13T12:46:57.193Z,98776.91
2023-01-13T12:49:24.041Z,98778.53
2023-01-13T12:51:51.019Z,98780.78
2023-01-13T12:54:18.364Z,98778.78
2023-01-13T12:56:45.232Z,98768.59
2023-01-13T12:59:12.527Z,98773.72
2023-01-13T13:01:39.758Z,98762.66
2023-01-13T13:04:07.077Z,98766.63
2023-01-13T13:06:33.923Z,98756.88
2023-01-13T13:09:03.456Z,98764.91
2023-01-13T13:11:30.836Z,98772.44
2023-01-13T13:13:57.790Z,98773.56
2023-01-13T13:16:24.707Z,98778.06
2023-01-13T13:18:51.647Z,98774.63
2023-01-13T13:21:18.585Z,98779.63
2023-01-13T13:23:45.642Z,98786.38
2023-01-13T13:26:12.486Z,98796.50
2023-01-13T13:28:39.467Z,98799.50
2023-01-13T13:31:06.583Z,98810.78
2023-01-13T13:33:33.553Z,98806.09
2023-01-13T13:36:00.568Z,98799.69
2023-01-13T13:38:27.389Z,98811.16
2023-01-13T13:40:54.449Z,98808.13
2023-01-13T13:43:21.274Z,98821.13
2023-01-13T13:45:48.224Z,98813.59
2023-01-13T13:48:15.115Z,98822.44
2023-01-13T13:50:42.133Z,98817.66
2023-01-13T13:53:09.142Z,98819.69
2023-01-13T13:55:36.366Z,98823.16
2023-01-13T13:58:03.411Z,98814.81
2023-01-13T14:00:30.297Z,98821.50
2023-01-13T14:02:57.180Z,98817.19
2023-01-13T14:05:24.078Z,98823.72
2023-01-13T14:07:50.928Z,98828.25
2023-01-13T14:10:17.906Z,98830.53
2023-01-13T14:12:45.123Z,98827.66
2023-01-13T14:15:12.752Z,98825.28
2023-01-13T14:17:39.695Z,98832.25
2023-01-13T14:20:07.635Z,98836.66
2023-01-13T14:22:36.575Z,98839.22
2023-01-13T14:25:03.379Z,98826.84
2023-01-13T14:27:30.441Z,98788.91
2023-01-13T14:29:57.330Z,98790.00
2023-01-13T14:32:24.594Z,98787.72
2023-01-13T14:34:54.299Z,98783.72
2023-01-13T14:37:21.270Z,98793.22
2023-01-13T14:39:48.146Z,98812.22
2023-01-13T14:42:14.985Z,98830.88
2023-01-13T14:44:44.232Z,98843.13
2023-01-13T14:47:11.165Z,98826.25
2023-01-13T14:49:38.249Z,98826.38
2023-01-13T14:52:05.133Z,98840.25
2023-01-13T14:54:32.537Z,98829.75
2023-01-13T14:56:59.390Z,98816.13
2023-01-13T14:59:26.305Z,98830.91
2023-01-13T15:01:53.569Z,98845.81
2023-01-13T15:04:21.402Z,98855.41
2023-01-13T15:06:48.601Z,98848.69
2023-01-13T15:09:17.736Z,98848.69
2023-01-13T15:11:44.554Z,98847.50
2023-01-13T15:14:11.434Z,98849.28
2023-01-13T15:16:38.460Z,98855.41
2023-01-13T15:19:06.769Z,98849.47
2023-01-13T15:21:33.691Z,98859.41
2023-01-13T15:24:00.484Z,98854.31
2023-01-13T15:26:27.284Z,98855.66
2023-01-13T15:28:54.850Z,98864.72
2023-01-13T15:31:21.734Z,98864.09
2023-01-13T15:33:48.812Z,98861.22
2023-01-13T15:36:15.887Z,98871.41
2023-01-13T15:38:43.599Z,98862.09
2023-01-13T15:41:10.584Z,98873.06
2023-01-13T15:43:37.348Z,98871.94
2023-01-13T15:46:04.291Z,98871.44
2023-01-13T15:48:31.177Z,98870.59
2023-01-13T15:50:59.384Z,98868.84
2023-01-13T15:53:27.364Z,98876.06
2023-01-13T15:55:54.250Z,98889.69
2023-01-13T15:58:21.116Z,98897.25
2023-01-13T16:00:53.800Z,98891.53
2023-01-13T16:03:20.935Z,98906.38
2023-01-13T16:05:47.791Z,98907.91
2023-01-13T16:08:15.854Z,98920.94
2023-01-13T16:10:43.030Z,98940.72
2023-01-13T16:13:11.290Z,98946.75
2023-01-13T16:15:38.142Z,98934.47
2023-01-13T16:18:05.110Z,98937.00
2023-01-13T16:20:32.338Z,98936.84
2023-01-13T16:22:59.227Z,98937.91
2023-01-13T16:25:26.684Z,98955.16
2023-01-13T16:27:53.489Z,98955.84
2023-01-13T16:30:20.510Z,98981.63
2023-01-13T16:32:47.389Z,98987.44
2023-01-13T16:35:14.421Z,98980.09
2023-01-13T16:37:42.296Z,98978.41
2023-01-13T16:40:09.174Z,98965.13
2023-01-13T16:42:36.389Z,98964.44
2023-01-13T16:45:03.337Z,98950.59
2023-01-13T16:47:30.139Z,98934.84
2023-01-13T16:49:56.981Z,98921.09
2023-01-13T16:52:23.970Z,98922.34
2023-01-13T16:54:50.784Z,98934.06
2023-01-13T16:57:17.992Z,98936.69
2023-01-13T16:59:44.792Z,98933.13
2023-01-13T17:02:12.147Z,98938.72
2023-01-13T17:04:39.278Z,98945.91
2023-01-13T17:07:06.803Z,98940.09
2023-01-13T17:09:33.651Z,98939.72
2023-01-13T17:12:00.931Z,98941.34
2023-01-13T17:14:30.089Z,98935.31
2023-01-13T17:16:58.320Z,98928.38
2023-01-13T17:19:25.283Z,98950.25
2023-01-13T17:21:52.186Z,98966.31
2023-01-13T17:24:19.491Z,98954.47
2023-01-13T17:26:46.624Z,98959.97
2023-01-13T17:29:13.557Z,98965.50
2023-01-13T17:31:40.630Z,98963.13
2023-01-13T17:34:07.937Z,98952.63
2023-01-13T17:36:34.719Z,98954.09
2023-01-13T17:39:01.742Z,98954.72
2023-01-13T17:41:28.793Z,98961.13
2023-01-13T17:43:56.217Z,98959.13
2023-01-13T17:46:23.444Z,98945.69
2023-01-13T17:48:51.123Z,98961.03
2023-01-13T17:51:19.857Z,98961.03
2023-01-13T17:53:46.783Z,98960.97
2023-01-13T17:56:14.766Z,98960.19
2023-01-13T17:58:41.706Z,98968.38
2023-01-13T18:01:08.603Z,98959.28
2023-01-13T18:03:35.958Z,98966.91
2023-01-13T18:06:02.791Z,98974.19
2023-01-13T18:08:30.604Z,98984.13
2023-01-13T18:10:57.855Z,98996.50
2023-01-13T18:13:25.255Z,98980.66
2023-01-13T18:15:52.275Z,98987.84
2023-01-13T18:18:19.413Z,98993.72
2023-01-13T18:20:46.625Z,99029.16
2023-01-13T18:23:13.795Z,99049.31
2023-01-13T18:25:41.952Z,99049.72
2023-01-13T18:28:10.145Z,99045.88
2023-01-13T18:30:37.785Z,99028.88
2023-01-13T18:33:05.404Z,99016.75
2023-01-13T18:35:32.426Z,99022.78
2023-01-13T18:37:59.819Z,99026.75
2023-01-13T18:40:27.317Z,99029.38
2023-01-13T18:42:54.425Z,99043.34
2023-01-13T18:45:22.060Z,99041.94
2023-01-13T18:47:49.108Z,99037.84
2023-01-13T18:50:17.161Z,99055.00
2023-01-13T18:52:44.437Z,99055.13
2023-01-13T18:55:12.028Z,99066.78
2023-01-13T18:57:39.683Z,99049.47
2023-01-13T19:00:06.561Z,99046.22
2023-01-13T19:02:37.327Z,99041.03
2023-01-13T19:05:05.349Z,99053.75
2023-01-13T19:07:32.340Z,99067.91
2023-01-13T19:09:59.325Z,99062.78
2023-01-13T19:12:26.340Z,99070.16
2023-01-13T19:14:53.423Z,99070.50
2023-01-13T19:17:20.285Z,99070.75
2023-01-13T19:19:47.590Z,99085.56
2023-01-13T19:22:14.982Z,99089.78
2023-01-13T19:24:42.255Z,99107.16
2023-01-13T19:27:09.557Z,99112.41
2023-01-13T19:29:36.849Z,99127.94
2023-01-13T19:32:09.715Z,99131.69
2023-01-13T19:34:38.234Z,99143.91
2023-01-13T19:37:05.564Z,99138.50
2023-01-13T19:39:34.036Z,99134.97
2023-01-13T19:42:01.358Z,99136.25
2023-01-13T19:44:29.740Z,99142.91
2023-01-13T19:46:57.462Z,99142.44
2023-01-13T19:49:25.076Z,99145.22
2023-01-13T19:51:56.449Z,99170.22
2023-01-13T19:54:25.106Z,99162.28
2023-01-13T19:56:52.270Z,99155.09
2023-01-13T19:59:21.170Z,99155.66
2023-01-13T20:01:48.957Z,99162.78
2023-01-13T20:04:16.210Z,99160.84
2023-01-13T20:06:43.623Z,99171.53
2023-01-13T20:09:10.823Z,99173.03
2023-01-13T20:11:38.283Z,99169.03
2023-01-13T20:14:06.754Z,99185.69
2023-01-13T20:16:33.868Z,99187.06
2023-01-13T20:19:02.340Z,99188.94
2023-01-13T20:21:29.370Z,99191.59
2023-01-13T20:23:56.606Z,99168.88
2023-01-13T20:26:23.893Z,99176.66
2023-01-13T20:28:51.644Z,99182.16
2023-01-13T20:31:18.893Z,99177.69
2023-01-13T20:33:46.349Z,99185.59
2023-01-13T20:36:13.738Z,99191.69
2023-01-13T20:38:41.027Z,99185.94
2023-01-13T20:41:07.859Z,99180.97
2023-01-13T20:43:35.143Z,99174.97
2023-01-13T20:46:02.282Z,99169.38
2023-01-13T20:48:30.542Z,99178.50
2023-01-13T20:50:57.702Z,99190.69
2023-01-13T20:53:25.262Z,99190.47
2023-01-13T20:55:54.339Z,99192.03
2023-01-13T20:58:21.698Z,99203.22
2023-01-13T21:00:48.942Z,99185.94
2023-01-13T21:03:15.923Z,99192.84
2023-01-13T21:05:43.035Z,99194.25
2023-01-13T21:08:09.963Z,99198.75
2023-01-13T21:10:36.959Z,99187.28
2023-01-13T21:13:03.915Z,99186.63
2023-01-13T21:15:31.217Z,99187.47
2023-01-13T21:17:58.507Z,99184.66
2023-01-13T21:20:25.743Z,99187.03
2023-01-13T21:22:52.703Z,99181.66
2023-01-13T21:25:20.208Z,99177.06
2023-01-13T21:27:47.212Z,99176.16
2023-01-13T21:30:14.688Z,99190.91
2023-01-13T21:32:41.534Z,99185.06
2023-01-13T21:35:09.352Z,99186.38
2023-01-13T21:37:36.324Z,99203.47
2023-01-13T21:40:03.255Z,99187.38
2023-01-13T21:42:30.944Z,99184.63
2023-01-13T21:44:58.364Z,99198.53
2023-01-13T21:47:25.215Z,99201.50
2023-01-13T21:49:52.190Z,99201.75
2023-01-13T21:52:19.016Z,99211.25
2023-01-13T21:54:46.312Z,99220.53
2023-01-13T21:57:13.196Z,99226.69
2023-01-13T21:59:43.429Z,99240.22
2023-01-13T22:02:24.646Z,99234.59
2023-01-13T22:04:52.453Z,99231.16
2023-01-13T22:07:21.627Z,99236.88
2023-01-13T22:09:48.707Z,99236.63
2023-01-13T22:12:15.628Z,99256.34
2023-01-13T22:14:42.500Z,99244.16
2023-01-13T22:17:09.905Z,99230.97
2023-01-13T22:19:36.729Z,99244.91
2023-01-13T22:22:03.708Z,99251.19
2023-01-13T22:24:30.573Z,99240.84
2023-01-13T22:26:57.394Z,99224.31
2023-01-13T22:29:24.180Z,99226.72
2023-01-13T22:31:51.090Z,99235.22
2023-01-13T22:34:17.967Z,99244.13
2023-01-13T22:36:45.030Z,99246.03
2023-01-13T22:39:11.949Z,99241.13
2023-01-13T22:41:38.822Z,99241.88
2023-01-13T22:44:05.847Z,99242.97
2023-01-13T22:46:33.042Z,99243.56
2023-01-13T22:49:00.000Z,99256.19
2023-01-13T22:51:26.873Z,99238.81
2023-01-13T22:53:53.744Z,99259.78
2023-01-13T22:56:20.644Z,99255.25
2023-01-13T22:58:47.537Z,99259.09
2023-01-13T23:01:14.538Z,99268.75
2023-01-13T23:03:41.430Z,99267.38
2023-01-13T23:06:09.024Z,99268.91
2023-01-13T23:08:36.326Z,99270.56
2023-01-13T23:11:05.803Z,99266.25
2023-01-13T23:13:32.691Z,99268.75
2023-01-13T23:15:59.552Z,99264.66
2023-01-13T23:18:26.490Z,99253.56
2023-01-13T23:20:54.381Z,99257.09
2023-01-13T23:23:21.192Z,99258.06
2023-01-13T23:25:48.039Z,99251.41
2023-01-13T23:28:15.782Z,99244.47
2023-01-13T23:30:42.641Z,99259.22
2023-01-13T23:33:09.723Z,99266.91
2023-01-13T23:35:36.533Z,99256.66
2023-01-13T23:38:03.420Z,99252.97
2023-01-13T23:40:30.362Z,99237.75
2023-01-13T23:42:57.220Z,99250.16
2023-01-13T23:45:24.008Z,99248.69
2023-01-13T23:47:51.205Z,99248.19
2023-01-13T23:50:18.166Z,99241.88
2023-01-13T23:52:44.967Z,99249.53
2023-01-13T23:55:16.015Z,99254.72
2023-01-13T23:57:44.055Z,99264.28
